Time;durP1;ratioP1;P1;durP2;ratioP2;P2;SDS_P1;SDS_P2;PMS_P1;PMS_P2;Temp;Humidity;BMP_temperature;BMP_pressure;BME280_temperature;BME280_humidity;BME280_pressure;Samples;Min_cycle;Max_cycle;Signal;HPM_P1;HPM_P2
2021/05/20 00:01:10;;;;;;;38.53;26.57;;;8.90;99.90;;;;;;5020941;28;20171;-65
2021/05/20 00:03:36;;;;;;;40.03;26.73;;;9.00;99.90;;;;;;5014013;28;20211;-64
2021/05/20 00:06:01;;;;;;;38.07;26.30;;;8.90;99.90;;;;;;5029242;28;20613;-64
2021/05/20 00:08:27;;;;;;;43.93;27.60;;;9.00;99.90;;;;;;5033533;28;20271;-65
2021/05/20 00:10:53;;;;;;;45.37;29.47;;;9.00;99.90;;;;;;5019223;28;20168;-65
2021/05/20 00:13:18;;;;;;;47.70;30.20;;;9.00;99.90;;;;;;5013909;28;20180;-64
2021/05/20 00:15:44;;;;;;;43.70;28.50;;;9.10;99.90;;;;;;5025660;28;20261;-64
2021/05/20 00:18:09;;;;;;;45.60;30.73;;;9.10;99.90;;;;;;5033719;28;20657;-65
2021/05/20 00:20:35;;;;;;;46.43;28.93;;;9.20;99.90;;;;;;5022481;28;20238;-65
2021/05/20 00:23:01;;;;;;;45.83;30.77;;;9.30;99.90;;;;;;5013630;28;20175;-65
2021/05/20 00:25:26;;;;;;;49.23;28.73;;;9.40;99.90;;;;;;5021939;28;20235;-64
2021/05/20 00:27:52;;;;;;;50.47;30.73;;;9.40;99.90;;;;;;5033323;28;20171;-64
2021/05/20 00:30:18;;;;;;;45.07;30.30;;;9.50;99.90;;;;;;5016997;28;20190;-65
2021/05/20 00:32:44;;;;;;;47.47;31.63;;;9.50;99.90;;;;;;5013404;28;20251;-64
2021/05/20 00:35:09;;;;;;;46.30;31.20;;;9.50;99.90;;;;;;5026429;28;20619;-65
2021/05/20 00:37:35;;;;;;;55.03;32.17;;;9.50;99.90;;;;;;5015721;28;20184;-64
2021/05/20 00:40:01;;;;;;;48.40;31.23;;;9.50;99.90;;;;;;5024491;28;20176;-64
2021/05/20 00:42:27;;;;;;;54.47;31.80;;;9.50;99.90;;;;;;5033011;28;20206;-65
2021/05/20 00:44:59;;;;;;;49.33;31.33;;;9.50;99.90;;;;;;5022850;28;20218;-65
2021/05/20 00:47:30;;;;;;;49.10;32.77;;;9.50;99.90;;;;;;5013147;28;20192;-64
2021/05/20 00:49:56;;;;;;;48.70;31.70;;;9.50;99.90;;;;;;5022562;28;20171;-64
2021/05/20 00:52:23;;;;;;;51.50;32.07;;;9.50;99.90;;;;;;5032890;28;20728;-65
2021/05/20 00:54:50;;;;;;;50.27;31.60;;;9.50;99.90;;;;;;5024168;28;20192;-65
2021/05/20 00:57:17;;;;;;;54.17;34.10;;;9.50;99.90;;;;;;5012996;28;20227;-64
2021/05/20 00:59:42;;;;;;;53.67;34.77;;;9.50;99.90;;;;;;5026673;28;20649;-65
2021/05/20 01:02:13;;;;;;;55.90;35.23;;;9.50;99.90;;;;;;5032603;28;20175;-65
2021/05/20 01:04:38;;;;;;;57.43;36.30;;;9.50;99.90;;;;;;5019313;28;20211;-65
2021/05/20 01:07:04;;;;;;;50.83;35.00;;;9.60;99.90;;;;;;5014332;28;20211;-65
2021/05/20 01:09:33;;;;;;;63.20;36.53;;;9.60;99.90;;;;;;5012742;28;20247;-64
2021/05/20 01:12:00;;;;;;;54.97;33.80;;;9.70;99.90;;;;;;5019523;28;20195;-65
2021/05/20 01:14:26;;;;;;;55.70;33.37;;;9.60;99.90;;;;;;5030185;28;20226;-64
2021/05/20 01:16:51;;;;;;;56.40;34.73;;;9.60;99.90;;;;;;5012433;28;20693;-65
2021/05/20 01:19:17;;;;;;;55.23;35.00;;;9.60;99.90;;;;;;5012714;28;20169;-65
2021/05/20 01:21:43;;;;;;;54.70;34.80;;;9.60;99.90;;;;;;5031599;28;20641;-65
2021/05/20 01:24:10;;;;;;;59.07;35.77;;;9.60;99.90;;;;;;5032260;28;20178;-65
2021/05/20 01:26:37;;;;;;;48.97;34.07;;;9.60;99.90;;;;;;5013231;28;20211;-63
2021/05/20 01:29:04;;;;;;;52.97;35.67;;;9.50;99.90;;;;;;5011595;28;20164;-64
2021/05/20 01:31:31;;;;;;;52.40;33.50;;;9.40;99.90;;;;;;5029383;28;20172;-64
2021/05/20 01:33:56;;;;;;;51.73;34.30;;;9.40;99.90;;;;;;5014566;28;20259;-64
2021/05/20 01:36:26;;;;;;;53.83;33.23;;;9.40;99.90;;;;;;5016145;28;20282;-65
2021/05/20 01:38:52;;;;;;;54.20;35.70;;;9.40;99.90;;;;;;5014331;28;20251;-65
2021/05/20 01:41:18;;;;;;;54.83;34.27;;;9.30;99.90;;;;;;5030181;28;20187;-65
2021/05/20 01:43:44;;;;;;;53.27;34.03;;;9.20;99.90;;;;;;5031203;28;20239;-65
2021/05/20 01:46:10;;;;;;;54.43;35.97;;;9.20;99.90;;;;;;5012064;28;20246;-65
2021/05/20 01:48:38;;;;;;;52.90;34.23;;;9.20;99.90;;;;;;5012096;28;20199;-65
2021/05/20 01:51:13;;;;;;;57.63;37.93;;;9.10;99.90;;;;;;5030710;28;20167;-65
2021/05/20 01:53:41;;;;;;;56.17;34.40;;;9.20;99.90;;;;;;5031941;28;20176;-65
2021/05/20 01:56:08;;;;;;;57.53;36.47;;;9.10;99.90;;;;;;5012552;28;20320;-64
2021/05/20 01:58:35;;;;;;;53.43;36.20;;;9.10;99.90;;;;;;5012055;28;20560;-65
2021/05/20 02:01:02;;;;;;;53.83;35.10;;;9.10;99.90;;;;;;5029181;28;20629;-65
2021/05/20 02:03:29;;;;;;;51.30;35.60;;;9.10;99.90;;;;;;5027131;28;20187;-64
2021/05/20 02:05:57;;;;;;;49.77;33.70;;;9.10;99.90;;;;;;5012331;28;20266;-67
2021/05/20 02:08:23;;;;;;;50.10;33.17;;;9.10;99.90;;;;;;5015748;28;20171;-67
2021/05/20 02:10:49;;;;;;;51.63;33.37;;;9.00;99.90;;;;;;4995213;28;20176;-66
2021/05/20 02:13:14;;;;;;;48.50;33.03;;;9.00;99.90;;;;;;5014480;28;20732;-69
2021/05/20 02:15:40;;;;;;;50.20;32.63;;;9.00;99.90;;;;;;5013584;28;20208;-68
2021/05/20 02:18:06;;;;;;;50.87;32.70;;;9.00;99.90;;;;;;5015431;28;20176;-66
2021/05/20 02:20:33;;;;;;;51.00;32.67;;;9.10;99.90;;;;;;5032403;28;20183;-70
2021/05/20 02:22:59;;;;;;;48.33;31.93;;;9.00;99.90;;;;;;5031997;28;20163;-69
2021/05/20 02:25:25;;;;;;;49.83;32.30;;;9.00;99.90;;;;;;5012912;28;20207;-68
2021/05/20 02:27:51;;;;;;;53.70;35.40;;;9.10;99.90;;;;;;5020384;28;20168;-70
2021/05/20 02:30:17;;;;;;;54.87;33.87;;;9.10;99.90;;;;;;5031996;28;20557;-70
2021/05/20 02:32:43;;;;;;;58.10;35.00;;;9.10;99.90;;;;;;5028390;28;20255;-70
2021/05/20 02:35:10;;;;;;;58.13;39.50;;;9.00;99.90;;;;;;5017066;28;20650;-69
2021/05/20 02:37:36;;;;;;;63.07;37.77;;;9.10;99.90;;;;;;5021328;28;20175;-67
2021/05/20 02:40:03;;;;;;;63.00;39.80;;;9.10;99.90;;;;;;5036827;28;20167;-68
2021/05/20 02:42:29;;;;;;;62.73;39.73;;;9.10;99.90;;;;;;5035240;28;20179;-69
2021/05/20 02:44:55;;;;;;;61.87;37.27;;;9.10;99.90;;;;;;5019071;28;20274;-71
2021/05/20 02:47:20;;;;;;;60.97;39.57;;;9.10;99.90;;;;;;5017910;28;20194;-69
2021/05/20 02:49:46;;;;;;;64.67;41.60;;;9.10;99.90;;;;;;5036598;28;20172;-69
2021/05/20 02:52:11;;;;;;;61.70;40.10;;;9.20;99.90;;;;;;5036583;28;20533;-68
2021/05/20 02:54:37;;;;;;;64.00;41.67;;;9.30;99.90;;;;;;5035112;28;20182;-67
2021/05/20 02:57:04;;;;;;;64.40;39.87;;;9.30;99.90;;;;;;5030512;28;20238;-70
2021/05/20 02:59:30;;;;;;;64.23;40.50;;;9.30;99.90;;;;;;5016298;28;20547;-67
2021/05/20 03:02:07;;;;;;;62.10;40.40;;;9.30;99.90;;;;;;5020445;28;20172;-68
2021/05/20 03:04:37;;;;;;;61.93;40.50;;;9.40;99.90;;;;;;5024804;28;20604;-69
2021/05/20 03:07:04;;;;;;;63.47;40.77;;;9.40;99.90;;;;;;5020355;28;20190;-69
2021/05/20 03:09:30;;;;;;;68.17;42.97;;;9.30;99.90;;;;;;5035997;28;20175;-66
2021/05/20 03:11:58;;;;;;;71.03;42.87;;;9.40;99.90;;;;;;5033024;28;20184;-68
2021/05/20 03:14:24;;;;;;;73.23;44.13;;;9.40;99.90;;;;;;5016313;28;20208;-66
2021/05/20 03:16:51;;;;;;;77.83;45.10;;;9.50;99.90;;;;;;5017353;28;20208;-68
2021/05/20 03:19:16;;;;;;;74.83;47.13;;;9.50;99.90;;;;;;5034832;28;20183;-66
2021/05/20 03:21:42;;;;;;;85.77;49.13;;;9.50;99.90;;;;;;5034045;28;20178;-66
2021/05/20 03:24:08;;;;;;;83.37;48.90;;;9.50;99.90;;;;;;5014793;28;20192;-65
2021/05/20 03:26:34;;;;;;;92.30;51.73;;;9.50;99.90;;;;;;5020903;28;20218;-66
2021/05/20 03:29:00;;;;;;;86.37;51.00;;;9.50;99.90;;;;;;5034453;28;20537;-65
2021/05/20 03:31:26;;;;;;;90.60;52.17;;;9.40;99.90;;;;;;5028980;28;20670;-66
2021/05/20 03:33:52;;;;;;;96.93;55.00;;;9.40;99.90;;;;;;5014699;28;20177;-65
2021/05/20 03:36:18;;;;;;;97.03;54.27;;;9.40;99.90;;;;;;5017582;28;20292;-65
2021/05/20 03:38:44;;;;;;;108.67;55.73;;;9.30;99.90;;;;;;5026956;28;20245;-65
2021/05/20 03:41:09;;;;;;;103.87;56.83;;;9.40;99.90;;;;;;5015459;28;20180;-65
2021/05/20 03:43:36;;;;;;;107.50;57.20;;;9.40;99.90;;;;;;5033700;28;20187;-66
2021/05/20 03:46:03;;;;;;;106.70;55.87;;;9.30;99.90;;;;;;5033825;28;20207;-66
2021/05/20 03:48:29;;;;;;;107.40;56.27;;;9.40;99.90;;;;;;5014304;28;20242;-66
2021/05/20 03:50:58;;;;;;;104.77;58.60;;;9.30;99.90;;;;;;5013955;28;20218;-66
2021/05/20 03:53:29;;;;;;;104.37;55.40;;;9.30;99.90;;;;;;5032438;28;20203;-65
2021/05/20 03:55:56;;;;;;;100.93;55.47;;;9.30;99.90;;;;;;5027882;28;20208;-66
2021/05/20 03:58:21;;;;;;;102.90;54.40;;;9.20;99.90;;;;;;5013384;28;20255;-65
2021/05/20 04:00:47;;;;;;;115.83;59.43;;;9.20;99.90;;;;;;5017715;28;20285;-66
2021/05/20 04:03:29;;;;;;;112.63;60.27;;;9.10;99.90;;;;;;5032312;28;20195;-65
2021/05/20 04:05:56;;;;;;;110.40;59.37;;;9.00;99.90;;;;;;5013936;28;20294;-66
2021/05/20 04:08:22;;;;;;;120.57;56.73;;;9.00;99.90;;;;;;5015751;28;20184;-65
2021/05/20 04:10:49;;;;;;;112.03;58.97;;;9.00;99.90;;;;;;5033374;28;20283;-65
2021/05/20 04:13:34;;;;;;;118.17;61.07;;;8.90;99.90;;;;;;5022568;28;20230;-65
2021/05/20 04:16:01;;;;;;;116.27;61.33;;;8.90;99.90;;;;;;5014163;28;20207;-65
2021/05/20 04:18:27;;;;;;;130.03;64.30;;;8.90;99.90;;;;;;5025579;28;20244;-65
2021/05/20 04:20:53;;;;;;;124.17;66.70;;;8.90;99.90;;;;;;5033258;28;20237;-65
2021/05/20 04:23:20;;;;;;;120.53;63.00;;;9.00;99.90;;;;;;5023057;28;20192;-65
2021/05/20 04:25:46;;;;;;;122.00;67.50;;;9.00;99.90;;;;;;5013752;28;20279;-65
2021/05/20 04:28:12;;;;;;;120.53;65.57;;;9.00;99.90;;;;;;5014776;28;20180;-65
2021/05/20 04:30:38;;;;;;;127.50;68.03;;;9.20;99.90;;;;;;5013622;28;20180;-65
2021/05/20 04:33:05;;;;;;;132.33;71.47;;;9.30;99.90;;;;;;5014301;28;20187;-65
2021/05/20 04:35:31;;;;;;;134.87;73.87;;;9.30;99.90;;;;;;4995772;28;20200;-65
2021/05/20 04:37:57;;;;;;;124.27;69.70;;;9.40;99.90;;;;;;5018694;28;20186;-65
2021/05/20 04:40:23;;;;;;;130.77;74.97;;;9.50;99.90;;;;;;5032767;28;20262;-65
2021/05/20 04:42:49;;;;;;;138.53;72.10;;;9.40;99.90;;;;;;5022356;28;20212;-65
2021/05/20 04:45:15;;;;;;;143.63;77.97;;;9.40;99.90;;;;;;5013110;28;20244;-65
2021/05/20 04:47:40;;;;;;;143.70;77.23;;;9.50;99.90;;;;;;5021626;28;20187;-65
2021/05/20 04:50:06;;;;;;;139.50;75.20;;;9.50;99.90;;;;;;5032719;28;20171;-65
2021/05/20 04:52:32;;;;;;;134.57;77.87;;;9.50;99.90;;;;;;5025760;28;20196;-65
2021/05/20 04:54:58;;;;;;;144.47;77.63;;;9.60;99.90;;;;;;5012073;28;20227;-66
2021/05/20 04:57:23;;;;;;;155.67;79.63;;;9.60;99.90;;;;;;5017715;28;20297;-65
2021/05/20 04:59:49;;;;;;;143.97;77.87;;;9.60;99.90;;;;;;5016111;28;20203;-65
2021/05/20 05:02:15;;;;;;;143.73;77.13;;;9.60;99.90;;;;;;5015766;28;20219;-65
2021/05/20 05:04:40;;;;;;;147.93;76.23;;;9.70;99.90;;;;;;5032589;28;20263;-65
2021/05/20 05:07:06;;;;;;;148.50;77.13;;;9.70;99.90;;;;;;5030146;28;20333;-65
2021/05/20 05:09:31;;;;;;;144.10;71.67;;;9.80;99.90;;;;;;5032349;28;20594;-65
2021/05/20 05:11:57;;;;;;;125.67;65.53;;;9.70;99.90;;;;;;5025454;28;20219;-65
2021/05/20 05:14:23;;;;;;;132.37;64.33;;;9.80;99.90;;;;;;5032384;28;20201;-65
2021/05/20 05:16:48;;;;;;;142.97;66.37;;;9.70;99.90;;;;;;5025791;28;20220;-65
2021/05/20 05:19:14;;;;;;;132.77;62.90;;;9.70;99.90;;;;;;5012605;28;20183;-65
2021/05/20 05:21:40;;;;;;;135.57;62.10;;;9.80;99.90;;;;;;5016296;28;20660;-65
2021/05/20 05:24:06;;;;;;;123.43;61.60;;;9.80;99.90;;;;;;5012625;28;20176;-65
2021/05/20 05:26:32;;;;;;;124.27;59.93;;;10.00;99.90;;;;;;5019020;28;20211;-65
2021/05/20 05:28:57;;;;;;;128.90;61.33;;;10.20;99.90;;;;;;5032094;28;20263;-65
2021/05/20 05:31:25;;;;;;;115.67;61.53;;;10.20;99.90;;;;;;5026410;28;20223;-65
2021/05/20 05:33:51;;;;;;;119.53;62.47;;;10.20;99.90;;;;;;5024888;28;20176;-65
2021/05/20 05:36:17;;;;;;;122.30;62.23;;;10.30;99.90;;;;;;5028247;28;20258;-65
2021/05/20 05:38:43;;;;;;;109.80;55.53;;;10.40;99.90;;;;;;5012289;28;20176;-65
2021/05/20 05:41:09;;;;;;;106.70;55.77;;;10.30;99.90;;;;;;5021892;28;20233;-65
2021/05/20 05:43:34;;;;;;;96.77;54.17;;;10.30;99.90;;;;;;5031952;28;20183;-65
2021/05/20 05:46:00;;;;;;;98.77;56.50;;;10.40;99.90;;;;;;5023358;28;20286;-65
2021/05/20 05:48:26;;;;;;;96.33;55.20;;;10.60;99.90;;;;;;5012024;28;20546;-65
2021/05/20 05:50:54;;;;;;;90.37;52.67;;;10.60;99.90;;;;;;5011898;28;20272;-65
2021/05/20 05:53:20;;;;;;;82.50;49.37;;;10.70;99.90;;;;;;5011968;28;20191;-65
2021/05/20 05:55:45;;;;;;;71.77;44.70;;;10.70;99.90;;;;;;5017038;28;20862;-65
2021/05/20 05:58:11;;;;;;;77.80;44.83;;;10.60;99.90;;;;;;5031683;28;20186;-65
2021/05/20 06:00:38;;;;;;;86.60;50.00;;;10.70;99.90;;;;;;5028216;28;20186;-65
2021/05/20 06:03:04;;;;;;;74.43;46.80;;;10.70;99.90;;;;;;5011847;28;20180;-65
2021/05/20 06:05:30;;;;;;;69.70;44.13;;;10.90;99.90;;;;;;5031213;28;20554;-65
2021/05/20 06:07:55;;;;;;;68.53;45.33;;;11.10;99.90;;;;;;5031387;28;20182;-65
2021/05/20 06:10:23;;;;;;;59.97;40.37;;;11.20;99.90;;;;;;5029584;28;20183;-65
2021/05/20 06:12:49;;;;;;;60.47;40.03;;;11.20;99.90;;;;;;5023056;28;20760;-63
2021/05/20 06:15:15;;;;;;;61.30;40.83;;;11.20;99.90;;;;;;5030680;28;20585;-64
2021/05/20 06:17:40;;;;;;;59.17;42.30;;;11.30;99.90;;;;;;5024795;28;20198;-64
2021/05/20 06:20:07;;;;;;;60.57;39.50;;;11.40;99.90;;;;;;5011186;28;20626;-64
2021/05/20 06:22:33;;;;;;;56.07;38.70;;;11.70;99.90;;;;;;5018382;28;20245;-64
2021/05/20 06:24:59;;;;;;;60.27;40.97;;;11.70;99.90;;;;;;5028018;28;20223;-64
2021/05/20 06:27:26;;;;;;;53.50;36.70;;;11.80;99.90;;;;;;5010930;28;20192;-66
2021/05/20 06:29:57;;;;;;;50.23;36.73;;;12.00;99.90;;;;;;5011652;28;20263;-64
2021/05/20 06:32:23;;;;;;;50.03;38.00;;;12.00;99.90;;;;;;5029706;28;20206;-64
2021/05/20 06:34:49;;;;;;;51.03;38.67;;;12.10;99.90;;;;;;5030621;28;20548;-63
2021/05/20 06:37:14;;;;;;;45.80;36.63;;;12.30;99.90;;;;;;5011978;28;20299;-64
2021/05/20 06:39:41;;;;;;;44.67;34.17;;;12.40;99.90;;;;;;5011179;28;20704;-64
2021/05/20 06:42:10;;;;;;;47.30;34.30;;;12.70;99.90;;;;;;5026330;28;20187;-64
2021/05/20 06:44:36;;;;;;;40.23;30.73;;;12.90;99.90;;;;;;5010858;28;20230;-64
2021/05/20 06:47:02;;;;;;;36.13;29.67;;;12.90;99.90;;;;;;5023062;28;20202;-64
2021/05/20 06:49:28;;;;;;;37.27;30.07;;;12.80;99.90;;;;;;5028562;28;20258;-64
2021/05/20 06:51:53;;;;;;;40.53;32.17;;;12.80;99.90;;;;;;5010934;28;20169;-64
2021/05/20 06:54:19;;;;;;;41.27;32.80;;;12.60;99.90;;;;;;5011021;28;20172;-64
2021/05/20 06:56:51;;;;;;;39.17;32.07;;;12.70;99.90;;;;;;5023227;28;20204;-66
2021/05/20 07:02:01;;;;;;;41.70;33.70;;;12.80;99.90;;;;;;5030448;28;20182;-64
2021/05/20 07:04:26;;;;;;;36.90;30.33;;;12.90;99.90;;;;;;5018507;28;20266;-64
2021/05/20 07:06:52;;;;;;;40.67;31.00;;;12.90;99.90;;;;;;5011558;28;20682;-64
2021/05/20 07:09:18;;;;;;;39.53;33.00;;;12.60;99.90;;;;;;5010925;28;20199;-64
2021/05/20 07:11:44;;;;;;;42.63;32.67;;;12.50;99.90;;;;;;5019540;28;20527;-64
2021/05/20 07:14:10;;;;;;;41.80;33.77;;;12.60;99.90;;;;;;5030603;28;20811;-64
2021/05/20 07:16:36;;;;;;;40.70;31.97;;;12.80;99.90;;;;;;5022635;28;20330;-64
2021/05/20 07:19:01;;;;;;;36.27;29.60;;;12.90;99.90;;;;;;5012447;28;20634;-64
2021/05/20 07:21:27;;;;;;;34.23;27.97;;;12.90;99.90;;;;;;5019306;28;20270;-64
2021/05/20 07:23:53;;;;;;;29.33;25.27;;;13.00;99.90;;;;;;5034451;28;20241;-64
2021/05/20 07:26:18;;;;;;;29.23;24.10;;;13.10;99.90;;;;;;5030081;28;20223;-64
2021/05/20 07:28:44;;;;;;;28.33;24.87;;;13.20;99.90;;;;;;5014354;28;20180;-64
2021/05/20 07:31:10;;;;;;;34.63;29.23;;;13.30;99.90;;;;;;5015587;28;20215;-64
2021/05/20 07:33:37;;;;;;;32.70;29.13;;;13.20;99.90;;;;;;5034097;28;20178;-63
2021/05/20 07:36:04;;;;;;;30.57;27.17;;;13.20;99.90;;;;;;5032067;28;20207;-64
2021/05/20 07:38:32;;;;;;;31.83;25.90;;;13.10;99.90;;;;;;5033803;28;20226;-64
2021/05/20 07:40:57;;;;;;;33.77;27.60;;;13.20;99.90;;;;;;5032851;28;20180;-64
2021/05/20 07:43:23;;;;;;;32.80;26.90;;;13.30;99.90;;;;;;5014037;28;20601;-64
2021/05/20 07:45:49;;;;;;;29.93;25.27;;;13.50;99.90;;;;;;5014121;28;20747;-64
2021/05/20 07:48:15;;;;;;;30.97;25.83;;;13.50;99.90;;;;;;5032417;28;20180;-64
2021/05/20 07:50:41;;;;;;;32.43;25.40;;;13.60;99.90;;;;;;5033377;28;20546;-64
2021/05/20 07:53:06;;;;;;;27.20;23.23;;;13.70;99.90;;;;;;5016708;28;20238;-64
2021/05/20 07:55:32;;;;;;;24.57;21.83;;;13.90;99.90;;;;;;5013654;28;20196;-64
2021/05/20 07:57:59;;;;;;;26.47;22.60;;;14.00;99.90;;;;;;5014783;28;20195;-64
2021/05/20 08:00:25;;;;;;;23.97;21.33;;;14.40;99.90;;;;;;5012816;28;20168;-64
2021/05/20 08:02:59;;;;;;;27.23;22.70;;;15.20;99.90;;;;;;5028425;28;20656;-64
2021/05/20 08:05:38;;;;;;;26.40;23.07;;;15.90;99.90;;;;;;5033368;28;20213;-64
2021/05/20 08:11:04;;;;;;;22.97;20.57;;;16.20;99.90;;;;;;4999414;28;20180;-64
2021/05/20 08:13:31;;;;;;;21.43;18.97;;;16.30;99.90;;;;;;5029549;28;20178;-64
2021/05/20 08:15:58;;;;;;;27.57;21.17;;;15.90;99.90;;;;;;5033318;28;20203;-64
2021/05/20 08:18:24;;;;;;;24.93;20.73;;;15.60;99.90;;;;;;5015109;28;20188;-64
2021/05/20 08:20:49;;;;;;;24.23;21.63;;;15.30;99.90;;;;;;5013149;28;20192;-64
2021/05/20 08:23:15;;;;;;;24.37;21.77;;;15.20;99.90;;;;;;5014701;28;20234;-64
2021/05/20 08:25:41;;;;;;;22.77;20.37;;;15.40;99.90;;;;;;5013165;28;20691;-64
2021/05/20 08:28:07;;;;;;;22.83;20.17;;;15.70;99.90;;;;;;5027697;28;20665;-64
2021/05/20 08:30:32;;;;;;;23.77;21.17;;;15.90;99.90;;;;;;5032256;28;20179;-64
2021/05/20 08:32:58;;;;;;;23.83;21.33;;;16.00;99.90;;;;;;5019536;28;20180;-64
2021/05/20 08:35:24;;;;;;;23.27;20.77;;;16.00;99.90;;;;;;5012832;28;20227;-64
2021/05/20 08:37:50;;;;;;;23.97;21.53;;;15.90;99.90;;;;;;5023982;28;20183;-64
2021/05/20 08:40:16;;;;;;;23.23;20.57;;;16.00;99.90;;;;;;5032668;28;20175;-64
2021/05/20 08:42:42;;;;;;;22.17;19.73;;;16.40;99.90;;;;;;5022647;28;20249;-64
2021/05/20 08:45:17;;;;;;;23.40;18.80;;;17.00;99.90;;;;;;5012717;28;20212;-65
2021/05/20 08:47:44;;;;;;;20.13;18.03;;;17.60;99.90;;;;;;5013750;28;20190;-64
2021/05/20 08:50:11;;;;;;;21.57;18.90;;;18.40;99.90;;;;;;5012919;28;20173;-66
2021/05/20 08:52:39;;;;;;;24.67;20.27;;;18.50;99.90;;;;;;5022570;28;20797;-65
2021/05/20 08:55:07;;;;;;;20.93;18.77;;;18.30;99.90;;;;;;5032401;28;20178;-66
2021/05/20 08:57:33;;;;;;;19.83;17.50;;;18.40;99.90;;;;;;5023148;28;20188;-65
2021/05/20 08:59:58;;;;;;;21.47;18.07;;;18.80;99.90;;;;;;5012686;28;20595;-65
2021/05/20 09:02:29;;;;;;;17.93;16.07;;;19.40;99.90;;;;;;5019787;28;20179;-65
2021/05/20 09:05:03;;;;;;;17.20;15.38;;;20.50;99.90;;;;;;5032534;28;20204;-65
2021/05/20 09:07:31;;;;;;;14.25;12.85;;;21.40;99.90;;;;;;5024638;28;20172;-65
2021/05/20 09:10:10;;;;;;;14.98;13.50;;;21.70;99.90;;;;;;5012495;28;20214;-64
2021/05/20 09:12:37;;;;;;;14.43;12.93;;;21.30;99.90;;;;;;5019803;28;20652;-64
2021/05/20 09:15:12;;;;;;;16.88;14.35;;;21.00;99.90;;;;;;5027178;28;20184;-64
2021/05/20 09:17:38;;;;;;;14.35;12.65;;;21.20;99.90;;;;;;5012044;28;20214;-64
2021/05/20 09:20:04;;;;;;;14.57;13.10;;;21.40;99.90;;;;;;5016324;28;20183;-65
2021/05/20 09:22:29;;;;;;;15.27;13.73;;;21.50;99.90;;;;;;5031989;28;20180;-65
2021/05/20 09:24:56;;;;;;;14.70;13.32;;;21.20;99.90;;;;;;5029227;28;20203;-64
2021/05/20 09:27:33;;;;;;;14.95;13.45;;;21.40;99.90;;;;;;5012095;28;20270;-64
2021/05/20 09:30:31;;;;;;;14.45;12.95;;;21.70;99.90;;;;;;5014178;28;20184;-65
2021/05/20 09:33:07;;;;;;;12.32;11.23;;;22.20;99.90;;;;;;5032040;28;20187;-65
2021/05/20 09:35:37;;;;;;;13.68;12.27;;;23.20;99.90;;;;;;5024936;28;20207;-65
2021/05/20 09:38:10;;;;;;;14.10;12.60;;;24.00;99.90;;;;;;5012028;28;20175;-65
2021/05/20 09:40:45;;;;;;;12.70;11.50;;;24.50;99.90;;;;;;5017537;28;20179;-65
2021/05/20 09:43:23;;;;;;;14.77;13.27;;;24.30;99.90;;;;;;5031670;28;20217;-65
2021/05/20 09:45:51;;;;;;;14.50;13.02;;;23.30;99.90;;;;;;5023754;28;20638;-64
2021/05/20 09:48:18;;;;;;;14.80;12.68;;;22.40;99.90;;;;;;5011600;28;20699;-65
2021/05/20 09:50:45;;;;;;;13.45;12.18;;;22.20;99.90;;;;;;5016201;28;20664;-64
2021/05/20 09:53:16;;;;;;;14.85;13.20;;;22.00;99.90;;;;;;5011700;28;20204;-64
2021/05/20 09:55:54;;;;;;;14.70;12.90;;;21.70;99.90;;;;;;5022214;28;20214;-64
2021/05/20 09:58:26;;;;;;;13.20;11.90;;;21.70;99.90;;;;;;5030574;28;20176;-64
2021/05/20 10:00:54;;;;;;;13.20;11.75;;;22.00;99.90;;;;;;5029668;28;20186;-65
2021/05/20 10:03:21;;;;;;;11.32;9.38;;;23.10;99.90;;;;;;5031356;28;20641;-65
2021/05/20 10:05:52;;;;;;;10.52;9.32;;;24.30;99.90;;;;;;5018404;28;20215;-65
2021/05/20 10:08:22;;;;;;;12.27;10.98;;;25.60;99.90;;;;;;5011730;28;20202;-65
2021/05/20 10:10:53;;;;;;;13.32;12.02;;;26.30;99.90;;;;;;5023374;28;20176;-65
2021/05/20 10:13:26;;;;;;;12.30;11.15;;;26.10;99.90;;;;;;5031292;28;20202;-65
2021/05/20 10:15:53;;;;;;;18.85;14.85;;;25.20;99.90;;;;;;5019801;28;20232;-65
2021/05/20 10:18:24;;;;;;;13.48;12.18;;;24.60;99.90;;;;;;5030456;28;20198;-65
2021/05/20 10:20:54;;;;;;;13.25;11.95;;;24.90;99.90;;;;;;5030314;28;20179;-64
2021/05/20 10:23:22;;;;;;;11.27;9.73;;;24.90;99.90;;;;;;5030934;28;20222;-65
2021/05/20 10:25:55;;;;;;;11.13;10.13;;;25.60;99.90;;;;;;5020412;28;20219;-64
2021/05/20 10:28:22;;;;;;;12.10;10.85;;;26.00;99.90;;;;;;5011429;28;20172;-65
2021/05/20 10:30:54;;;;;;;12.27;11.05;;;25.30;99.90;;;;;;5015132;28;20172;-65
2021/05/20 10:33:26;;;;;;;13.77;10.63;;;24.20;99.90;;;;;;5011594;28;20161;-65
2021/05/20 10:35:53;;;;;;;11.88;10.68;;;23.60;99.90;;;;;;5026018;28;20195;-65
2021/05/20 10:38:29;;;;;;;11.80;10.70;;;23.70;99.90;;;;;;5031341;28;20172;-65
2021/05/20 10:41:09;;;;;;;10.60;9.60;;;23.80;99.90;;;;;;5016467;28;20669;-65
2021/05/20 10:43:36;;;;;;;8.70;7.90;;;24.50;99.90;;;;;;5011509;28;20176;-65
2021/05/20 10:46:13;;;;;;;10.63;8.77;;;24.60;99.90;;;;;;5025858;28;20637;-65
2021/05/20 10:49:01;;;;;;;9.38;8.50;;;24.90;99.90;;;;;;5031172;28;20183;-65
2021/05/20 10:51:36;;;;;;;10.57;9.57;;;24.90;99.90;;;;;;5013114;28;20262;-65
2021/05/20 10:54:02;;;;;;;10.70;9.60;;;24.30;99.90;;;;;;5013335;28;20167;-64
2021/05/20 10:56:35;;;;;;;11.35;8.40;;;24.50;99.90;;;;;;5028532;28;20229;-65
2021/05/20 10:59:02;;;;;;;8.40;7.60;;;24.80;99.90;;;;;;5035079;28;20580;-65
2021/05/20 11:01:30;;;;;;;8.02;7.32;;;25.10;99.90;;;;;;5017585;28;20542;-65
2021/05/20 11:04:06;;;;;;;9.95;7.38;;;25.20;99.90;;;;;;5015145;28;20172;-65
2021/05/20 11:06:37;;;;;;;8.30;7.43;;;25.90;99.90;;;;;;5031472;28;20210;-65
2021/05/20 11:09:10;;;;;;;9.32;7.70;;;26.00;99.90;;;;;;5034711;28;20217;-65
2021/05/20 11:11:38;;;;;;;9.23;7.90;;;25.60;99.90;;;;;;5017683;28;20184;-66
2021/05/20 11:14:13;;;;;;;7.93;7.22;;;24.40;99.90;;;;;;5015777;28;20172;-65
2021/05/20 11:16:40;;;;;;;10.85;6.40;;;23.30;99.90;;;;;;5034395;28;20287;-65
2021/05/20 11:19:28;;;;;;;7.57;5.53;;;22.50;99.90;;;;;;5033674;28;20175;-64
2021/05/20 11:22:07;;;;;;;8.30;7.30;;;22.70;99.90;;;;;;5014753;28;20199;-65
2021/05/20 11:24:36;;;;;;;7.78;7.00;;;23.00;99.90;;;;;;5018376;28;20233;-65
2021/05/20 11:27:03;;;;;;;9.15;8.05;;;22.90;99.90;;;;;;5034274;28;20582;-64
2021/05/20 11:29:34;;;;;;;8.40;7.43;;;22.70;99.90;;;;;;5031328;28;20168;-65
2021/05/20 11:37:32;;;;;;;8.02;7.00;;;23.80;99.90;;;;;;5014367;28;20235;-64
2021/05/20 11:39:58;;;;;;;6.47;5.90;;;24.30;99.90;;;;;;5019781;28;20171;-65
2021/05/20 11:42:32;;;;;;;8.02;5.25;;;24.40;99.90;;;;;;5034070;28;20167;-65
2021/05/20 11:45:04;;;;;;;6.53;5.93;;;24.50;99.90;;;;;;5028676;28;20653;-65
2021/05/20 11:47:30;;;;;;;7.60;5.60;;;25.10;99.90;;;;;;5014134;28;20176;-65
2021/05/20 11:49:56;;;;;;;6.43;4.88;;;25.40;99.90;;;;;;5018257;28;20712;-65
2021/05/20 11:52:25;;;;;;;6.22;5.63;;;25.20;99.90;;;;;;5033946;28;20266;-64
2021/05/20 11:54:53;;;;;;;6.05;4.47;;;24.80;99.90;;;;;;5030685;28;20218;-65
2021/05/20 11:57:23;;;;;;;6.72;4.07;;;24.60;99.90;;;;;;5031292;28;20206;-65
2021/05/20 11:59:53;;;;;;;6.18;3.92;;;24.60;99.90;;;;;;5024053;28;20180;-65
2021/05/20 12:02:26;;;;;;;5.93;4.22;;;24.80;99.90;;;;;;5013957;28;20172;-65
2021/05/20 12:05:00;;;;;;;4.00;3.65;;;25.00;99.90;;;;;;5023429;28;20645;-65
2021/05/20 12:07:27;;;;;;;4.47;3.95;;;24.90;99.80;;;;;;5033490;28;20579;-65
2021/05/20 12:09:55;;;;;;;5.70;3.90;;;24.90;99.90;;;;;;5023999;28;20191;-65
2021/05/20 12:12:21;;;;;;;5.68;4.55;;;25.10;99.90;;;;;;5013860;28;20176;-65
2021/05/20 12:14:48;;;;;;;5.53;4.30;;;24.90;97.80;;;;;;5021658;28;20254;-64
2021/05/20 12:17:22;;;;;;;6.30;4.60;;;24.20;98.50;;;;;;5033331;28;20215;-65
2021/05/20 12:19:50;;;;;;;5.22;4.68;;;23.60;98.20;;;;;;5025644;28;20642;-65
2021/05/20 12:22:28;;;;;;;4.10;3.80;;;23.20;99.50;;;;;;5013592;28;20188;-65
2021/05/20 12:25:04;;;;;;;4.38;3.97;;;23.50;99.60;;;;;;5021288;28;20186;-65
2021/05/20 12:27:36;;;;;;;8.90;4.50;;;23.90;99.90;;;;;;5033293;28;20510;-65
2021/05/20 12:30:05;;;;;;;4.95;3.88;;;23.80;99.90;;;;;;5024555;28;20172;-65
2021/05/20 12:32:37;;;;;;;4.00;3.63;;;23.90;99.50;;;;;;5013313;28;20598;-64
2021/05/20 12:35:23;;;;;;;4.22;3.83;;;23.60;99.60;;;;;;5021201;28;20329;-64
2021/05/20 12:38:12;;;;;;;5.32;3.72;;;23.70;99.90;;;;;;5033220;28;20637;-65
2021/05/20 12:40:44;;;;;;;4.03;3.40;;;23.70;99.90;;;;;;5020466;28;20258;-65
2021/05/20 12:43:14;;;;;;;3.45;3.15;;;23.80;99.00;;;;;;5012974;28;20172;-65
2021/05/20 12:45:45;;;;;;;4.15;3.30;;;24.10;99.50;;;;;;5023485;28;20306;-64
2021/05/20 12:48:32;;;;;;;3.45;3.15;;;24.10;99.90;;;;;;5013197;28;20743;-65